Terminal Aerodrome Forecast
Issued by NWS

Home | Current Version | Previous Version | Text Only | Print | Product List | Glossary Off
Versions: 1 2 3 4 5 6 7 8 9 10 11 12 13 14 15 16 17

000
FTUS43 KGRB 271725
TAFCWA
TAF
KCWA 271725Z 2718/2818 19007KT P6SM SCT200
     FM272300 16006KT P6SM SCT130
     FM280200 16005KT P6SM SCT080 BKN110
     FM280900 14006KT 2SM -RA OVC015
     FM281100 13006KT 1 1/2SM -RADZ OVC007
     FM281400 14006KT 1SM -DZ OVC004=

USA.gov is the U.S. government's official web portal to all federal, state and local government web resources and services.